createdAt,value
2023-02-07T00:01:34.174Z,88512.31
2023-02-07T00:04:02.372Z,88518.72
2023-02-07T00:06:34.044Z,88522.59
2023-02-07T00:09:04.563Z,88516.16
2023-02-07T00:11:32.302Z,88520.03
2023-02-07T00:14:00.256Z,88517.94
2023-02-07T00:16:28.468Z,88517.69
2023-02-07T00:18:58.340Z,88522.03
2023-02-07T00:21:28.541Z,88527.16
2023-02-07T00:23:56.351Z,88538.75
2023-02-07T00:26:26.722Z,88529.22
2023-02-07T00:28:55.638Z,88522.78
2023-02-07T00:31:35.112Z,88521.47
2023-02-07T00:34:06.070Z,88533.78
2023-02-07T00:36:36.256Z,88537.09
2023-02-07T00:39:08.482Z,88538.38
2023-02-07T00:41:35.716Z,88539.59
2023-02-07T00:44:04.042Z,88544.16
2023-02-07T00:46:31.932Z,88548.84
2023-02-07T00:48:59.766Z,88543.72
2023-02-07T00:51:27.808Z,88532.69
2023-02-07T00:53:56.353Z,88534.75
2023-02-07T00:56:26.550Z,88531.09
2023-02-07T00:58:54.330Z,88540.38
2023-02-07T01:01:22.587Z,88544.75
2023-02-07T01:03:51.000Z,88542.66
2023-02-07T01:06:18.490Z,88553.16
2023-02-07T01:08:46.161Z,88547.25
2023-02-07T01:11:17.050Z,88541.06
2023-02-07T01:13:45.370Z,88540.53
2023-02-07T01:16:28.583Z,88539.22
2023-02-07T01:18:56.791Z,88543.03
2023-02-07T01:21:26.754Z,88546.38
2023-02-07T01:23:54.869Z,88547.03
2023-02-07T01:26:25.012Z,88550.09
2023-02-07T01:28:55.077Z,88551.09
2023-02-07T01:31:23.857Z,88549.81
2023-02-07T01:34:00.292Z,88546.47
2023-02-07T01:36:30.058Z,88553.09
2023-02-07T01:38:57.880Z,88545.59
2023-02-07T01:41:27.114Z,88555.38
2023-02-07T01:44:07.193Z,88564.13
2023-02-07T01:46:37.098Z,88553.09
2023-02-07T01:49:13.258Z,88552.28
2023-02-07T01:51:48.900Z,88545.84
2023-02-07T01:54:18.718Z,88544.03
2023-02-07T01:56:57.214Z,88538.84
2023-02-07T01:59:26.912Z,88546.22
2023-02-07T02:02:01.384Z,88547.91
2023-02-07T02:04:29.293Z,88555.34
2023-02-07T02:06:57.983Z,88548.97
2023-02-07T02:09:27.495Z,88553.56
2023-02-07T02:12:34.277Z,88554.81
2023-02-07T02:15:30.886Z,88562.19
2023-02-07T02:18:42.811Z,88560.41
2023-02-07T02:21:18.859Z,88559.88
2023-02-07T02:24:14.841Z,88557.84
2023-02-07T02:26:54.260Z,88559.06
2023-02-07T02:30:03.270Z,88556.22
2023-02-07T02:32:51.484Z,88553.16
2023-02-07T02:35:52.154Z,88554.69
2023-02-07T02:38:32.453Z,88558.06
2023-02-07T02:41:11.830Z,88550.56
2023-02-07T02:43:56.399Z,88554.31
2023-02-07T02:46:36.625Z,88557.09
2023-02-07T02:49:08.887Z,88554.47
2023-02-07T02:51:36.296Z,88545.94
2023-02-07T02:54:03.620Z,88538.22
2023-02-07T02:56:58.649Z,88545.13
2023-02-07T02:59:44.666Z,88552.56
2023-02-07T03:03:15.396Z,88551.78
2023-02-07T03:06:16.373Z,88562.44
2023-02-07T03:08:47.936Z,88571.59
2023-02-07T03:11:22.264Z,88578.22
2023-02-07T03:14:20.469Z,88578.63
2023-02-07T03:17:01.860Z,88580.59
2023-02-07T03:19:48.681Z,88590.09
2023-02-07T03:22:22.165Z,88593.13
2023-02-07T03:24:56.041Z,88592.81
2023-02-07T03:27:25.922Z,88600.97
2023-02-07T03:29:56.849Z,88602.59
2023-02-07T03:32:38.526Z,88608.03
2023-02-07T03:35:25.437Z,88613.34
2023-02-07T03:38:01.557Z,88624.75
2023-02-07T03:40:44.442Z,88621.69
2023-02-07T03:43:35.166Z,88614.72
2023-02-07T03:46:02.447Z,88616.19
2023-02-07T03:48:30.113Z,88613.63
2023-02-07T03:50:57.548Z,88616.97
2023-02-07T03:53:25.115Z,88614.81
2023-02-07T03:55:52.299Z,88616.75
2023-02-07T03:58:20.181Z,88616.97
2023-02-07T04:00:47.430Z,88604.19
2023-02-07T04:03:14.813Z,88609.66
2023-02-07T04:05:43.883Z,88602.28
2023-02-07T04:08:11.161Z,88609.13
2023-02-07T04:10:38.605Z,88611.41
2023-02-07T04:13:06.178Z,88603.66
2023-02-07T04:15:33.392Z,88602.78
2023-02-07T04:18:00.613Z,88602.44
2023-02-07T04:20:28.157Z,88610.75
2023-02-07T04:22:55.362Z,88617.41
2023-02-07T04:25:22.772Z,88612.31
2023-02-07T04:27:50.013Z,88623.53
2023-02-07T04:30:17.431Z,88623.31
2023-02-07T04:32:44.552Z,88637.19
2023-02-07T04:35:11.955Z,88644.75
2023-02-07T04:37:39.466Z,88658.00
2023-02-07T04:40:07.932Z,88665.59
2023-02-07T04:42:35.082Z,88664.09
2023-02-07T04:45:02.360Z,88664.59
2023-02-07T04:47:29.528Z,88676.84
2023-02-07T04:49:56.949Z,88676.06
2023-02-07T04:52:24.187Z,88686.59
2023-02-07T04:54:51.426Z,88683.09
2023-02-07T04:57:19.164Z,88681.22
2023-02-07T04:59:46.430Z,88686.09
2023-02-07T05:02:13.855Z,88691.56
2023-02-07T05:04:41.491Z,88693.56
2023-02-07T05:07:09.075Z,88699.69
2023-02-07T05:09:36.528Z,88707.81
2023-02-07T05:12:04.049Z,88707.03
2023-02-07T05:14:31.316Z,88706.25
2023-02-07T05:16:58.861Z,88699.59
2023-02-07T05:19:26.416Z,88691.47
2023-02-07T05:21:53.626Z,88701.16
2023-02-07T05:24:20.959Z,88690.84
2023-02-07T05:26:48.184Z,88691.28
2023-02-07T05:29:15.437Z,88699.44
2023-02-07T05:31:42.896Z,88695.41
2023-02-07T05:34:10.285Z,88686.72
2023-02-07T05:36:37.489Z,88689.84
2023-02-07T05:39:05.019Z,88694.16
2023-02-07T05:41:32.300Z,88686.84
2023-02-07T05:43:59.472Z,88688.72
2023-02-07T05:46:28.324Z,88691.91
2023-02-07T05:48:55.573Z,88702.28
2023-02-07T05:51:22.809Z,88701.72
2023-02-07T05:53:51.392Z,88700.72
2023-02-07T05:56:22.733Z,88704.63
2023-02-07T05:58:50.187Z,88704.06
2023-02-07T06:01:17.440Z,88700.19
2023-02-07T06:03:44.727Z,88691.75
2023-02-07T06:06:12.087Z,88696.16
2023-02-07T06:08:39.344Z,88692.84
2023-02-07T06:11:06.881Z,88687.28
2023-02-07T06:13:34.222Z,88689.16
2023-02-07T06:16:01.418Z,88684.56
2023-02-07T06:18:28.789Z,88685.47
2023-02-07T06:20:56.113Z,88686.31
2023-02-07T06:23:23.342Z,88681.19
2023-02-07T06:25:50.628Z,88675.09
2023-02-07T06:28:18.043Z,88675.94
2023-02-07T06:30:45.386Z,88680.56
2023-02-07T06:33:12.963Z,88678.34
2023-02-07T06:35:42.952Z,88681.53
2023-02-07T06:38:18.072Z,88686.16
2023-02-07T06:40:45.807Z,88704.81
2023-02-07T06:43:13.361Z,88705.22
2023-02-07T06:45:41.331Z,88713.56
2023-02-07T06:48:10.967Z,88708.22
2023-02-07T06:50:38.655Z,88705.16
2023-02-07T06:53:06.054Z,88705.84
2023-02-07T06:55:39.567Z,88710.22
2023-02-07T06:58:07.969Z,88712.13
2023-02-07T07:00:35.727Z,88709.75
2023-02-07T07:03:04.491Z,88709.31
2023-02-07T07:05:32.985Z,88702.19
2023-02-07T07:08:00.292Z,88716.06
2023-02-07T07:10:27.985Z,88718.50
2023-02-07T07:12:55.198Z,88712.88
2023-02-07T07:16:22.293Z,88713.09
2023-02-07T07:19:04.512Z,88719.44
2023-02-07T07:21:32.143Z,88715.97
2023-02-07T07:23:59.790Z,88722.50
2023-02-07T07:26:36.675Z,88728.69
2023-02-07T07:29:14.142Z,88730.81
2023-02-07T07:31:41.335Z,88726.25
2023-02-07T07:34:08.564Z,88721.69
2023-02-07T07:36:35.793Z,88716.53
2023-02-07T07:39:03.668Z,88717.84
2023-02-07T07:41:31.039Z,88715.06
2023-02-07T07:43:58.331Z,88725.00
2023-02-07T07:46:25.852Z,88719.00
2023-02-07T07:48:53.144Z,88721.31
2023-02-07T07:51:20.384Z,88724.66
2023-02-07T07:53:54.799Z,88716.59
2023-02-07T07:56:22.057Z,88703.28
2023-02-07T07:58:49.274Z,88701.09
2023-02-07T08:01:16.572Z,88685.56
2023-02-07T08:03:43.844Z,88691.31
2023-02-07T08:06:11.325Z,88682.66
2023-02-07T08:08:38.714Z,88668.97
2023-02-07T08:11:09.404Z,88664.22
2023-02-07T08:13:38.397Z,88655.66
2023-02-07T08:16:07.664Z,88659.19
2023-02-07T08:18:35.666Z,88646.50
2023-02-07T08:21:03.648Z,88645.13
2023-02-07T08:23:31.230Z,88643.13
2023-02-07T08:25:58.416Z,88641.47
2023-02-07T08:28:27.346Z,88626.97
2023-02-07T08:30:55.044Z,88629.94
2023-02-07T08:33:22.944Z,88622.53
2023-02-07T08:35:50.964Z,88622.63
2023-02-07T08:38:18.242Z,88615.81
2023-02-07T08:40:45.420Z,88616.19
2023-02-07T08:43:14.296Z,88618.53
2023-02-07T08:45:47.174Z,88615.25
2023-02-07T08:48:15.269Z,88610.47
2023-02-07T08:50:42.675Z,88604.91
2023-02-07T08:53:10.273Z,88596.03
2023-02-07T08:55:40.998Z,88595.06
2023-02-07T08:58:08.473Z,88601.00
2023-02-07T09:00:36.540Z,88593.84
2023-02-07T09:03:05.143Z,88589.75
2023-02-07T09:05:32.621Z,88591.28
2023-02-07T09:08:01.644Z,88587.44
2023-02-07T09:10:29.000Z,88583.38
2023-02-07T09:12:56.332Z,88581.84
2023-02-07T09:15:23.618Z,88580.88
2023-02-07T09:17:50.826Z,88584.22
2023-02-07T09:20:18.427Z,88572.91
2023-02-07T09:22:45.690Z,88565.75
2023-02-07T09:25:13.149Z,88552.16
2023-02-07T09:27:40.473Z,88552.44
2023-02-07T09:30:09.922Z,88547.31
2023-02-07T09:32:37.137Z,88551.16
2023-02-07T09:35:04.510Z,88548.06
2023-02-07T09:37:37.395Z,88549.38
2023-02-07T09:40:19.001Z,88535.47
2023-02-07T09:43:26.661Z,88538.56
2023-02-07T09:46:03.033Z,88539.09
2023-02-07T09:48:51.183Z,88546.28
2023-02-07T09:51:24.252Z,88541.41
2023-02-07T09:54:00.257Z,88545.25
2023-02-07T09:56:30.102Z,88536.50
2023-02-07T09:59:27.384Z,88529.28
2023-02-07T10:02:01.702Z,88525.38
2023-02-07T10:04:39.615Z,88521.75
2023-02-07T10:07:11.496Z,88504.19
2023-02-07T10:09:42.728Z,88491.78
2023-02-07T10:12:56.149Z,88479.63
2023-02-07T10:15:57.093Z,88486.78
2023-02-07T10:18:52.435Z,88472.31
2023-02-07T10:21:41.276Z,88469.50
2023-02-07T10:24:33.401Z,88461.44
2023-02-07T10:27:11.560Z,88457.81
2023-02-07T10:30:24.465Z,88449.00
2023-02-07T10:32:52.405Z,88449.25
2023-02-07T10:35:35.037Z,88447.41
2023-02-07T10:38:04.585Z,88451.22
2023-02-07T10:40:52.987Z,88446.03
2023-02-07T10:43:33.246Z,88432.34
2023-02-07T10:46:08.929Z,88430.25
2023-02-07T10:48:37.970Z,88433.88
2023-02-07T10:51:19.408Z,88426.56
2023-02-07T10:54:01.052Z,88432.97
2023-02-07T10:56:31.676Z,88430.88
2023-02-07T10:59:00.075Z,88432.91
2023-02-07T11:01:31.830Z,88427.16
2023-02-07T11:03:59.693Z,88426.09
2023-02-07T11:06:34.915Z,88426.50
2023-02-07T11:09:24.719Z,88416.81
2023-02-07T11:11:54.384Z,88425.53
2023-02-07T11:14:25.861Z,88419.19
2023-02-07T11:17:00.165Z,88417.75
2023-02-07T11:19:31.969Z,88411.72
2023-02-07T11:22:23.636Z,88409.28
2023-02-07T11:24:59.523Z,88407.91
2023-02-07T11:27:27.631Z,88414.06
2023-02-07T11:30:07.094Z,88407.56
2023-02-07T11:32:35.000Z,88406.03
2023-02-07T11:35:08.613Z,88406.19
2023-02-07T11:37:40.510Z,88408.00
2023-02-07T11:40:27.030Z,88412.91
2023-02-07T11:47:05.269Z,88415.13
2023-02-07T11:49:54.391Z,88408.28
2023-02-07T11:52:22.478Z,88393.69
2023-02-07T11:55:06.206Z,88383.44
2023-02-07T11:57:34.729Z,88386.94
2023-02-07T12:00:04.793Z,88378.22
2023-02-07T12:02:33.849Z,88361.28
2023-02-07T12:05:25.795Z,88350.16
2023-02-07T12:08:06.497Z,88346.31
2023-02-07T12:10:39.849Z,88341.84
2023-02-07T12:13:31.352Z,88337.34
2023-02-07T12:16:15.411Z,88333.66
2023-02-07T12:18:53.647Z,88336.16
2023-02-07T12:21:32.402Z,88332.97
2023-02-07T12:24:16.983Z,88318.97
2023-02-07T12:26:54.438Z,88334.44
2023-02-07T12:29:50.093Z,88324.91
2023-02-07T12:32:42.529Z,88322.53
2023-02-07T12:39:44.435Z,88312.09
2023-02-07T12:42:39.507Z,88306.41
2023-02-07T12:45:14.790Z,88300.25
2023-02-07T12:48:19.045Z,88293.69
2023-02-07T12:51:07.736Z,88286.94
2023-02-07T12:54:06.011Z,88287.13
2023-02-07T12:57:18.882Z,88282.81
2023-02-07T13:00:08.781Z,88287.50
2023-02-07T13:02:54.054Z,88284.84
2023-02-07T13:06:00.561Z,88288.63
2023-02-07T13:12:49.987Z,88280.03
2023-02-07T13:15:55.120Z,88283.00
2023-02-07T13:18:42.106Z,88273.09
2023-02-07T13:21:29.095Z,88273.34
2023-02-07T13:24:06.324Z,88277.72
2023-02-07T13:26:35.451Z,88271.56
2023-02-07T13:29:17.326Z,88282.47
2023-02-07T13:31:58.079Z,88274.44
2023-02-07T13:34:32.095Z,88275.25
2023-02-07T13:37:11.454Z,88273.06
2023-02-07T13:44:26.789Z,88281.44
2023-02-07T13:51:38.632Z,88279.34
2023-02-07T13:55:05.333Z,88266.06
2023-02-07T14:01:32.168Z,88262.34
2023-02-07T14:04:10.538Z,88270.59
2023-02-07T14:10:51.235Z,88263.22
2023-02-07T14:13:27.895Z,88266.69
2023-02-07T14:16:09.375Z,88259.19
2023-02-07T14:18:50.151Z,88261.31
2023-02-07T14:21:23.113Z,88263.72
2023-02-07T14:24:14.345Z,88259.66
2023-02-07T14:35:17.418Z,88264.72
2023-02-07T14:38:09.138Z,88260.22
2023-02-07T14:41:01.816Z,88249.16
2023-02-07T14:43:56.772Z,88262.66
2023-02-07T14:46:42.631Z,88262.00
2023-02-07T14:49:20.926Z,88266.47
2023-02-07T14:51:54.796Z,88263.22
2023-02-07T14:55:01.182Z,88270.28
2023-02-07T15:02:30.441Z,88262.78
2023-02-07T15:04:59.463Z,88257.13
2023-02-07T15:07:26.676Z,88268.50
2023-02-07T15:14:03.122Z,88265.88
2023-02-07T15:16:35.823Z,88279.28
2023-02-07T15:19:23.080Z,88277.69
2023-02-07T15:21:51.353Z,88275.03
2023-02-07T15:24:51.204Z,88287.69
2023-02-07T15:27:26.818Z,88290.81
2023-02-07T15:30:06.646Z,88287.56
2023-02-07T15:32:43.643Z,88296.97
2023-02-07T15:35:28.818Z,88298.81
2023-02-07T15:38:23.130Z,88308.31
2023-02-07T15:40:52.911Z,88316.41
2023-02-07T15:43:35.414Z,88314.94
2023-02-07T15:46:06.359Z,88315.22
2023-02-07T15:48:49.832Z,88326.03
2023-02-07T15:51:25.056Z,88327.66
2023-02-07T15:53:57.810Z,88325.41
2023-02-07T15:56:28.992Z,88326.25
2023-02-07T15:59:10.458Z,88330.41
2023-02-07T16:01:38.020Z,88336.69
2023-02-07T16:04:08.861Z,88341.16
2023-02-07T16:10:42.485Z,88349.91
2023-02-07T16:13:23.121Z,88359.53
2023-02-07T16:16:26.700Z,88374.53
2023-02-07T16:19:19.890Z,88373.81
2023-02-07T16:22:02.014Z,88376.44
2023-02-07T16:24:31.649Z,88373.19
2023-02-07T16:27:00.860Z,88386.63
2023-02-07T16:29:29.067Z,88386.94
2023-02-07T16:31:56.726Z,88387.47
2023-02-07T16:34:26.640Z,88395.59
2023-02-07T16:36:56.164Z,88399.22
2023-02-07T16:39:24.032Z,88388.16
2023-02-07T16:41:59.308Z,88398.25
2023-02-07T16:44:28.268Z,88401.66
2023-02-07T16:46:55.666Z,88409.88
2023-02-07T16:49:25.392Z,88414.56
2023-02-07T16:51:53.768Z,88424.91
2023-02-07T16:54:22.031Z,88424.94
2023-02-07T16:56:54.413Z,88424.94
2023-02-07T16:59:23.254Z,88428.59
2023-02-07T17:01:52.997Z,88437.72
2023-02-07T17:04:21.904Z,88440.03
2023-02-07T17:06:50.423Z,88441.09
2023-02-07T17:09:24.932Z,88442.13
2023-02-07T17:11:56.687Z,88456.09
2023-02-07T17:14:23.941Z,88455.84
2023-02-07T17:16:51.297Z,88456.38
2023-02-07T17:19:23.130Z,88456.41
2023-02-07T17:21:52.125Z,88459.50
2023-02-07T17:24:20.157Z,88462.09
2023-02-07T17:26:54.286Z,88458.00
2023-02-07T17:29:22.525Z,88466.75
2023-02-07T17:31:50.390Z,88462.16
2023-02-07T17:34:18.047Z,88458.28
2023-02-07T17:36:50.999Z,88460.34
2023-02-07T17:39:19.652Z,88461.91
2023-02-07T17:41:46.932Z,88463.97
2023-02-07T17:44:14.454Z,88461.91
2023-02-07T17:46:47.390Z,88469.69
2023-02-07T17:49:16.995Z,88463.75
2023-02-07T17:51:44.304Z,88462.50
2023-02-07T17:58:18.738Z,88452.25
2023-02-07T18:00:45.975Z,88444.00
2023-02-07T18:03:21.866Z,88449.72
2023-02-07T18:05:49.112Z,88445.06
2023-02-07T18:12:16.696Z,88435.31
2023-02-07T18:14:44.108Z,88435.31
2023-02-07T18:17:11.897Z,88431.22
2023-02-07T18:19:41.394Z,88432.25
2023-02-07T18:22:11.327Z,88434.31
2023-02-07T18:24:38.545Z,88430.72
2023-02-07T18:27:06.116Z,88437.94
2023-02-07T18:29:33.392Z,88426.59
2023-02-07T18:32:00.759Z,88434.03
2023-02-07T18:34:28.336Z,88437.38
2023-02-07T18:36:55.800Z,88436.38
2023-02-07T18:39:23.366Z,88446.94
2023-02-07T18:41:50.594Z,88446.94
2023-02-07T18:44:17.835Z,88445.41
2023-02-07T18:46:45.210Z,88450.56
2023-02-07T18:49:13.713Z,88456.47
2023-02-07T18:51:41.072Z,88458.28
2023-02-07T18:54:08.568Z,88463.91
2023-02-07T18:56:38.887Z,88472.66
2023-02-07T18:59:06.122Z,88465.19
2023-02-07T19:01:39.721Z,88474.44
2023-02-07T19:04:09.726Z,88469.53
2023-02-07T19:06:37.101Z,88476.72
2023-02-07T19:09:04.347Z,88479.53
2023-02-07T19:11:31.513Z,88473.88
2023-02-07T19:13:58.771Z,88491.63
2023-02-07T19:16:27.071Z,88491.84
2023-02-07T19:18:59.278Z,88503.38
2023-02-07T19:21:26.809Z,88510.31
2023-02-07T19:23:56.071Z,88517.50
2023-02-07T19:26:24.263Z,88516.22
2023-02-07T19:28:53.077Z,88515.94
2023-02-07T19:31:21.685Z,88516.19
2023-02-07T19:33:50.645Z,88526.22
2023-02-07T19:36:19.777Z,88510.53
2023-02-07T19:38:47.414Z,88508.72
2023-02-07T19:41:15.133Z,88512.56
2023-02-07T19:43:42.695Z,88517.41
2023-02-07T19:46:10.327Z,88525.34
2023-02-07T19:48:38.527Z,88521.50
2023-02-07T19:51:13.982Z,88529.22
2023-02-07T19:53:44.117Z,88524.84
2023-02-07T19:56:12.304Z,88525.34
2023-02-07T19:58:42.310Z,88529.97
2023-02-07T20:01:10.345Z,88518.41
2023-02-07T20:03:38.902Z,88517.09
2023-02-07T20:06:12.091Z,88521.22
2023-02-07T20:08:43.180Z,88523.25
2023-02-07T20:11:16.032Z,88526.56
2023-02-07T20:13:48.173Z,88522.97
2023-02-07T20:16:20.908Z,88526.84
2023-02-07T20:18:49.364Z,88527.34
2023-02-07T20:21:21.612Z,88524.03
2023-02-07T20:23:55.226Z,88525.84
2023-02-07T20:26:35.134Z,88527.66
2023-02-07T20:29:08.953Z,88526.06
2023-02-07T20:31:37.793Z,88531.16
2023-02-07T20:34:08.543Z,88529.09
2023-02-07T20:36:37.683Z,88518.81
2023-02-07T20:39:04.929Z,88520.59
2023-02-07T20:41:32.310Z,88533.09
2023-02-07T20:44:08.827Z,88534.88
2023-02-07T20:46:37.624Z,88535.34
2023-02-07T20:49:13.944Z,88536.63
2023-02-07T20:51:41.377Z,88533.50
2023-02-07T20:54:10.917Z,88530.94
2023-02-07T20:56:38.908Z,88532.97
2023-02-07T20:59:07.657Z,88533.63
2023-02-07T21:01:36.140Z,88537.97
2023-02-07T21:04:05.785Z,88537.66
2023-02-07T21:06:35.262Z,88544.88
2023-02-07T21:09:06.425Z,88536.66
2023-02-07T21:11:37.610Z,88542.00
2023-02-07T21:14:08.738Z,88547.91
2023-02-07T21:16:36.316Z,88549.66
2023-02-07T21:19:03.832Z,88547.34
2023-02-07T21:21:31.388Z,88552.19
2023-02-07T21:23:59.651Z,88558.28
2023-02-07T21:26:28.777Z,88554.13
2023-02-07T21:29:02.443Z,88556.94
2023-02-07T21:31:33.073Z,88563.84
2023-02-07T21:34:03.558Z,88558.72
2023-02-07T21:36:35.180Z,88560.59
2023-02-07T21:39:02.509Z,88569.31
2023-02-07T21:41:30.580Z,88571.59
2023-02-07T21:43:59.382Z,88573.38
2023-02-07T21:46:31.128Z,88573.06
2023-02-07T21:49:02.650Z,88574.25
2023-02-07T21:51:33.889Z,88583.97
2023-02-07T21:54:03.744Z,88580.63
2023-02-07T21:56:35.087Z,88581.88
2023-02-07T21:59:06.897Z,88590.28
2023-02-07T22:01:34.620Z,88598.44
2023-02-07T22:04:03.935Z,88594.00
2023-02-07T22:06:33.433Z,88587.50
2023-02-07T22:09:02.456Z,88590.00
2023-02-07T22:11:34.399Z,88592.03
2023-02-07T22:14:01.966Z,88590.44
2023-02-07T22:16:32.191Z,88589.91
2023-02-07T22:19:02.177Z,88584.19
2023-02-07T22:21:33.562Z,88590.81
2023-02-07T22:24:02.433Z,88586.44
2023-02-07T22:26:31.064Z,88585.13
2023-02-07T22:28:58.675Z,88590.75
2023-02-07T22:31:30.234Z,88586.88
2023-02-07T22:34:03.949Z,88588.66
2023-02-07T22:36:34.626Z,88587.31
2023-02-07T22:39:04.234Z,88586.00
2023-02-07T22:41:32.893Z,88587.56
2023-02-07T22:44:00.522Z,88588.56
2023-02-07T22:46:29.223Z,88582.22
2023-02-07T22:48:57.062Z,88589.09
2023-02-07T22:51:26.084Z,88588.81
2023-02-07T22:53:58.787Z,88588.22
2023-02-07T22:56:27.662Z,88591.78
2023-02-07T22:58:56.197Z,88593.44
2023-02-07T23:01:28.335Z,88585.47
2023-02-07T23:03:56.992Z,88570.56
2023-02-07T23:06:26.539Z,88574.44
2023-02-07T23:08:54.690Z,88581.88
2023-02-07T23:11:23.769Z,88575.44
2023-02-07T23:13:53.193Z,88585.94
2023-02-07T23:16:28.092Z,88578.19
2023-02-07T23:19:01.636Z,88578.88
2023-02-07T23:21:30.073Z,88583.94
2023-02-07T23:23:58.013Z,88592.56
2023-02-07T23:26:27.011Z,88588.75
2023-02-07T23:28:54.858Z,88587.84
2023-02-07T23:31:24.489Z,88594.97
2023-02-07T23:33:53.366Z,88590.41
2023-02-07T23:36:21.485Z,88586.81
2023-02-07T23:38:50.284Z,88593.72
2023-02-07T23:41:18.118Z,88591.81
2023-02-07T23:43:45.931Z,88592.50
2023-02-07T23:46:15.928Z,88597.78
2023-02-07T23:48:43.764Z,88592.03
2023-02-07T23:51:12.529Z,88587.38
2023-02-07T23:53:40.146Z,88590.47
2023-02-07T23:56:08.300Z,88597.78
2023-02-07T23:58:36.735Z,88592.44
